Pagrindinis puslapis
METAR-TAF:

METAR-TAF

Oro uostai :

Tôlanaro, Madagaskaras

platuma: 25-02S, ilguma: 046-57E, Aukštis: 8 m

Dabartinis oras

Ataskaita buvo paskelbta 40 minutes, ne 12:00 UTC
Vėjas 14 kt iš Rytų/Šiaurės Rytų
Temperatūra 22°C
Drėgmė 94%
Slėgis 1012 hPa
Matomumas: 3000 m
Mažai debesys ne aukštis 700 ft
Išsisklaidę debesys ne aukštis 1600 ft
Su prošvaistėmis ne aukštis 3000 ft
lietus

METAR: FMSD 151200Z 06014KT 3000 RA FEW007 SCT016 BKN030 22/21 Q1012

Laikas: 15:40 (12:40 UTC)

Prognozė

Ataskaita buvo paskelbta 1 valandą ir 40 minutes, ne 11:00 UTC
Prognozė galioja nuo 15 metu 12 UTC su 16 metu 12 UTC
Vėjas 16 kt iš Rytų
Matomumas: 8000 m
Mažai debesys ne aukštis 1000 ft
Išsisklaidę debesys ne aukštis 1600 ft, aukštai iškilę kamuoliniai debesys.
Su prošvaistėmis ne aukštis 3300 ft
Laikinai
nuo 15 metu 12 UTC su 16 metu 08 UTC
Matomumas: 4000 m
lietus

TAF: FMSD 151100Z 1512/1612 08016KT 8000 FEW010 SCT016TCU BKN033 TEMPO 1512/1608 4000 RA

Orai ataskaitas ir orų prognozės (METAR, TAF).

turimą stotys yra geltonos ir raudonos taškus žemėlapyje.

Perkelti pele per norėdami pamatyti stoties vardą.

Tada spustelėkite, norėdami matyti oro stebėjimo ir prognozės.

Norėdami pakeisti žemėlapį: spustelėkite ant žalios mygtukų su juodo kryžiaus žemyn,; žalią mygtuką su brūkšneliu, jei norite nutolinti; arba žalių rodyklių gretimoms žemėlapius.


METAR-TAF: